createdAt,value
2022-08-16T00:01:34.097Z,10.27
2022-08-16T00:04:05.071Z,8.52
2022-08-16T00:06:33.844Z,9.25
2022-08-16T00:09:04.651Z,9.55
2022-08-16T00:11:58.765Z,9.27
2022-08-16T00:14:52.068Z,9.20
2022-08-16T00:17:30.536Z,9.52
2022-08-16T00:20:23.337Z,8.60
2022-08-16T00:37:56.777Z,8.63
2022-08-16T00:40:50.907Z,8.43
2022-08-16T00:43:43.246Z,8.80
2022-08-16T00:46:53.036Z,8.45
2022-08-16T00:49:39.174Z,8.98
2022-08-16T00:52:30.575Z,8.35
2022-08-16T01:13:21.328Z,9.07
2022-08-16T01:16:02.926Z,8.60
2022-08-16T01:18:56.236Z,8.38
2022-08-16T01:21:39.998Z,8.23
2022-08-16T01:24:48.537Z,8.75
2022-08-16T01:27:31.456Z,8.43
2022-08-16T01:30:19.399Z,7.95
2022-08-16T01:33:02.159Z,8.75
2022-08-16T01:35:52.649Z,8.63
2022-08-16T01:38:34.336Z,8.40
2022-08-16T01:41:09.514Z,8.40
2022-08-16T02:00:46.252Z,8.52
2022-08-16T02:06:08.152Z,8.82
2022-08-16T02:08:41.669Z,9.23
2022-08-16T02:24:42.341Z,9.80
2022-08-16T02:27:41.407Z,9.43
2022-08-16T02:30:37.386Z,9.10
2022-08-16T02:33:04.177Z,8.95
2022-08-16T02:35:32.656Z,9.18
2022-08-16T02:38:08.437Z,9.18
2022-08-16T02:40:39.543Z,8.82
2022-08-16T02:43:10.225Z,9.10
2022-08-16T02:45:39.882Z,8.95
2022-08-16T02:48:29.071Z,9.98
2022-08-16T02:51:10.298Z,8.82
2022-08-16T02:56:37.812Z,8.43
2022-08-16T02:59:11.491Z,9.13
2022-08-16T03:01:42.161Z,9.55
2022-08-16T03:04:40.628Z,8.77
2022-08-16T03:07:12.487Z,9.57
2022-08-16T03:09:54.894Z,9.65
2022-08-16T03:12:30.422Z,9.30
2022-08-16T03:15:15.343Z,9.23
2022-08-16T03:17:53.527Z,8.85
2022-08-16T03:23:14.777Z,9.15
2022-08-16T03:28:38.066Z,9.70
2022-08-16T03:31:09.933Z,10.52
2022-08-16T03:33:38.120Z,9.55
2022-08-16T03:36:33.901Z,9.05
2022-08-16T03:39:05.847Z,10.32
2022-08-16T03:45:03.935Z,9.80
2022-08-16T03:47:36.137Z,9.98
2022-08-16T03:50:25.999Z,9.77
2022-08-16T03:53:01.373Z,9.93
2022-08-16T03:55:45.197Z,10.63
2022-08-16T03:58:14.214Z,10.02
2022-08-16T04:00:46.130Z,10.13
2022-08-16T04:03:18.698Z,11.13
2022-08-16T04:08:45.200Z,10.13
2022-08-16T04:11:16.341Z,10.48
2022-08-16T04:16:57.944Z,9.50
2022-08-16T04:19:41.845Z,11.30
2022-08-16T04:22:17.407Z,10.35
2022-08-16T04:24:54.221Z,10.23
2022-08-16T04:27:28.940Z,10.70
2022-08-16T04:30:02.811Z,11.73
2022-08-16T04:32:32.438Z,10.98
2022-08-16T04:55:13.653Z,10.57
2022-08-16T05:09:29.384Z,11.68
2022-08-16T05:11:57.903Z,10.93
2022-08-16T05:14:45.618Z,12.18
2022-08-16T05:20:38.564Z,11.98
2022-08-16T05:23:04.012Z,12.65
2022-08-16T05:25:41.382Z,12.98
2022-08-16T05:28:18.631Z,13.35
2022-08-16T05:31:16.849Z,14.07
2022-08-16T05:34:19.692Z,14.20
2022-08-16T05:36:55.604Z,14.38
2022-08-16T05:39:25.075Z,14.40
2022-08-16T05:42:23.198Z,12.27
2022-08-16T05:45:06.807Z,13.32
2022-08-16T05:47:43.499Z,13.77
2022-08-16T05:50:19.324Z,12.50
2022-08-16T05:52:54.762Z,12.25
2022-08-16T05:55:21.821Z,15.02
2022-08-16T05:57:52.669Z,14.93
2022-08-16T06:00:22.623Z,13.80
2022-08-16T06:02:57.752Z,14.00
2022-08-16T06:05:53.819Z,14.85
2022-08-16T06:08:31.874Z,15.10
2022-08-16T06:11:09.606Z,14.52
2022-08-16T06:13:42.259Z,14.40
2022-08-16T06:16:18.096Z,14.57
2022-08-16T06:19:16.890Z,15.02
2022-08-16T06:21:57.829Z,15.00
2022-08-16T06:24:55.262Z,14.05
2022-08-16T06:27:15.813Z,15.10
2022-08-16T06:29:50.082Z,13.68
2022-08-16T06:32:47.480Z,13.23
2022-08-16T06:35:41.892Z,12.80
2022-08-16T06:38:31.999Z,12.05
2022-08-16T06:40:57.801Z,12.23
2022-08-16T06:43:52.203Z,11.77
2022-08-16T06:46:31.726Z,10.82
2022-08-16T06:49:12.472Z,10.32
2022-08-16T06:51:46.055Z,10.43
2022-08-16T06:54:25.837Z,9.70
2022-08-16T06:56:54.175Z,9.82
2022-08-16T06:59:25.707Z,8.70
2022-08-16T07:05:15.305Z,8.70
2022-08-16T07:07:56.750Z,8.68
2022-08-16T07:10:32.046Z,8.95
2022-08-16T07:13:03.920Z,7.60
2022-08-16T07:15:37.808Z,7.95
2022-08-16T07:18:20.418Z,6.63
2022-08-16T07:20:49.448Z,7.43
2022-08-16T07:23:18.322Z,7.95
2022-08-16T07:26:25.507Z,7.50
2022-08-16T07:28:55.810Z,6.53
2022-08-16T07:31:37.602Z,6.85
2022-08-16T07:34:09.992Z,7.15
2022-08-16T07:36:38.448Z,6.35
2022-08-16T07:39:05.834Z,5.93
2022-08-16T07:41:36.253Z,5.50
2022-08-16T07:44:16.176Z,5.22
2022-08-16T07:46:45.811Z,5.90
2022-08-16T07:49:18.188Z,5.70
2022-08-16T07:51:45.991Z,5.65
2022-08-16T07:57:12.187Z,5.05
2022-08-16T07:59:49.552Z,4.85
2022-08-16T08:02:20.570Z,4.68
2022-08-16T08:05:14.193Z,4.45
2022-08-16T08:07:45.066Z,4.30
2022-08-16T08:10:29.271Z,4.25
2022-08-16T08:12:59.385Z,4.95
2022-08-16T08:15:34.501Z,5.03
2022-08-16T08:18:30.278Z,5.18
2022-08-16T08:20:59.402Z,5.10
2022-08-16T08:23:28.262Z,5.15
2022-08-16T08:25:56.083Z,4.53
2022-08-16T08:28:30.775Z,4.90
2022-08-16T08:31:04.071Z,4.30
2022-08-16T08:33:36.919Z,4.85
2022-08-16T08:36:21.747Z,4.00
2022-08-16T08:38:57.209Z,3.97
2022-08-16T08:41:33.779Z,4.00
2022-08-16T08:44:28.323Z,4.18
2022-08-16T08:47:00.003Z,4.63
2022-08-16T08:49:55.045Z,4.50
2022-08-16T08:52:35.052Z,4.00
2022-08-16T08:55:09.245Z,4.32
2022-08-16T08:57:43.460Z,4.37
2022-08-16T09:00:34.632Z,3.85
2022-08-16T09:03:17.864Z,4.25
2022-08-16T09:05:48.514Z,5.00
2022-08-16T09:08:19.913Z,4.80
2022-08-16T09:11:03.135Z,4.32
2022-08-16T09:13:47.352Z,4.47
2022-08-16T09:17:03.113Z,4.35
2022-08-16T09:21:37.820Z,5.38
2022-08-16T09:26:57.837Z,4.97
2022-08-16T09:29:45.574Z,4.90
2022-08-16T09:32:28.466Z,5.03
2022-08-16T09:34:59.800Z,4.78
2022-08-16T09:37:36.470Z,5.05
2022-08-16T09:40:32.553Z,5.75
2022-08-16T09:42:56.069Z,4.90
2022-08-16T09:45:33.055Z,6.25
2022-08-16T09:48:09.173Z,5.47
2022-08-16T09:50:38.533Z,4.68
2022-08-16T09:56:26.519Z,5.00
2022-08-16T09:59:04.929Z,4.82
2022-08-16T10:02:00.209Z,4.55
2022-08-16T10:04:30.915Z,4.50
2022-08-16T10:07:44.388Z,4.38
2022-08-16T10:10:19.174Z,4.38
2022-08-16T10:13:12.748Z,4.25
2022-08-16T10:15:55.098Z,3.45
2022-08-16T10:18:40.923Z,4.45
2022-08-16T10:21:11.842Z,3.70
2022-08-16T10:23:44.353Z,4.50
2022-08-16T10:27:18.491Z,3.80
2022-08-16T10:29:05.649Z,3.95
2022-08-16T10:34:32.283Z,3.67
2022-08-16T10:37:01.226Z,4.57
2022-08-16T10:42:23.921Z,4.10
2022-08-16T10:45:17.936Z,4.07
2022-08-16T10:47:46.111Z,4.10
2022-08-16T10:50:18.851Z,4.40
2022-08-16T10:52:58.738Z,4.40
2022-08-16T10:55:44.269Z,3.97
2022-08-16T11:01:43.762Z,4.20
2022-08-16T11:10:20.748Z,4.88
2022-08-16T11:12:55.360Z,4.70
2022-08-16T11:15:24.582Z,4.07
2022-08-16T11:20:48.949Z,5.00
2022-08-16T11:23:17.860Z,4.35
2022-08-16T11:26:20.611Z,4.60
2022-08-16T11:31:27.856Z,4.70
2022-08-16T11:34:29.177Z,4.45
2022-08-16T11:37:11.624Z,4.70
2022-08-16T11:39:59.983Z,3.97
2022-08-16T11:42:29.702Z,4.25
2022-08-16T11:44:59.960Z,4.80
2022-08-16T11:47:27.797Z,4.50
2022-08-16T11:50:00.498Z,4.07
2022-08-16T11:52:27.934Z,4.20
2022-08-16T11:55:21.235Z,4.75
2022-08-16T11:58:15.800Z,5.50
2022-08-16T12:00:51.325Z,4.90
2022-08-16T12:03:31.119Z,4.82
2022-08-16T12:06:25.294Z,5.47
2022-08-16T12:09:01.070Z,5.75
2022-08-16T12:11:54.002Z,6.30
2022-08-16T12:14:22.957Z,6.97
2022-08-16T12:16:55.599Z,6.00
2022-08-16T12:19:33.693Z,6.20
2022-08-16T12:22:19.878Z,6.35
2022-08-16T12:27:52.819Z,6.50
2022-08-16T12:30:31.239Z,5.43
2022-08-16T12:33:11.371Z,5.63
2022-08-16T12:36:04.064Z,5.05
2022-08-16T12:38:48.548Z,4.72
2022-08-16T12:44:19.739Z,4.93
2022-08-16T12:47:08.159Z,4.55
2022-08-16T12:52:32.527Z,4.88
2022-08-16T12:55:03.323Z,5.38
2022-08-16T12:57:36.121Z,5.28
2022-08-16T13:00:26.897Z,5.40
2022-08-16T13:03:03.791Z,5.43
2022-08-16T13:05:42.898Z,5.30
2022-08-16T13:08:21.904Z,5.28
2022-08-16T13:13:53.433Z,4.68
2022-08-16T13:16:24.739Z,4.97
2022-08-16T13:18:53.743Z,5.55
2022-08-16T13:21:23.699Z,5.60
2022-08-16T13:27:09.787Z,5.53
2022-08-16T13:29:39.696Z,5.65
2022-08-16T13:32:40.529Z,5.70
2022-08-16T13:35:06.373Z,5.80
2022-08-16T13:37:39.829Z,5.40
2022-08-16T13:40:20.195Z,5.28
2022-08-16T13:45:45.180Z,6.03
2022-08-16T13:48:21.859Z,6.63
2022-08-16T13:50:56.374Z,6.10
2022-08-16T13:53:28.282Z,6.20
2022-08-16T13:56:22.337Z,5.20
2022-08-16T13:58:57.954Z,5.50
2022-08-16T14:01:26.076Z,5.13
2022-08-16T14:03:54.669Z,5.00
2022-08-16T14:06:23.848Z,5.70
2022-08-16T14:08:59.025Z,4.72
2022-08-16T14:17:21.278Z,4.68
2022-08-16T14:19:50.296Z,4.53
2022-08-16T14:22:45.885Z,4.43
2022-08-16T14:25:21.976Z,4.57
2022-08-16T14:27:52.342Z,4.53
2022-08-16T14:30:27.786Z,3.53
2022-08-16T14:32:56.556Z,4.07
2022-08-16T14:35:36.875Z,4.07
2022-08-16T14:38:23.661Z,3.85
2022-08-16T14:40:55.596Z,3.97
2022-08-16T14:43:25.560Z,3.83
2022-08-16T14:45:58.713Z,4.45
2022-08-16T14:48:26.731Z,4.30
2022-08-16T14:50:54.729Z,4.13
2022-08-16T14:56:17.446Z,5.03
2022-08-16T14:59:03.923Z,5.03
2022-08-16T15:01:57.640Z,4.68
2022-08-16T15:04:32.581Z,4.75
2022-08-16T15:07:11.217Z,4.90
2022-08-16T15:09:44.442Z,5.13
2022-08-16T15:12:33.454Z,3.85
2022-08-16T15:15:11.987Z,3.97
2022-08-16T15:17:42.466Z,4.43
2022-08-16T15:20:22.875Z,4.68
2022-08-16T15:23:00.376Z,4.25
2022-08-16T15:25:35.090Z,4.60
2022-08-16T15:28:04.684Z,4.30
2022-08-16T15:31:03.749Z,4.40
2022-08-16T15:33:34.747Z,3.92
2022-08-16T15:36:04.490Z,4.15
2022-08-16T15:38:56.301Z,4.10
2022-08-16T15:41:54.744Z,4.20
2022-08-16T15:44:44.555Z,4.25
2022-08-16T15:50:17.839Z,4.28
2022-08-16T15:52:47.804Z,3.63
2022-08-16T15:55:29.776Z,4.20
2022-08-16T15:58:34.902Z,4.13
2022-08-16T16:01:26.441Z,4.47
2022-08-16T16:03:53.815Z,4.28
2022-08-16T16:06:28.123Z,3.90
2022-08-16T16:09:26.169Z,4.22
2022-08-16T16:12:41.496Z,4.35
2022-08-16T16:14:57.668Z,4.28
2022-08-16T16:17:29.980Z,4.32
2022-08-16T16:19:57.868Z,4.40
2022-08-16T16:22:52.428Z,4.38
2022-08-16T16:29:04.994Z,4.70
2022-08-16T16:31:04.736Z,4.57
2022-08-16T16:33:47.803Z,4.28
2022-08-16T16:36:28.708Z,4.80
2022-08-16T16:38:58.339Z,4.15
2022-08-16T16:41:28.171Z,4.50
2022-08-16T16:43:57.787Z,4.03
2022-08-16T16:46:42.889Z,4.53
2022-08-16T16:49:15.150Z,4.50
2022-08-16T16:51:49.781Z,4.60
2022-08-16T16:54:27.567Z,4.82
2022-08-16T16:56:58.682Z,4.40
2022-08-16T17:02:41.332Z,4.22
2022-08-16T17:05:09.824Z,4.20
2022-08-16T17:07:37.830Z,4.53
2022-08-16T17:10:46.243Z,5.10
2022-08-16T17:13:42.037Z,4.70
2022-08-16T17:16:19.180Z,4.32
2022-08-16T17:19:16.578Z,4.78
2022-08-16T17:21:40.292Z,4.22
2022-08-16T17:24:40.063Z,4.45
2022-08-16T17:27:17.967Z,4.45
2022-08-16T17:29:54.109Z,3.92
2022-08-16T17:32:54.934Z,4.97
2022-08-16T17:35:38.444Z,4.20
2022-08-16T17:38:08.550Z,4.40
2022-08-16T17:40:55.641Z,4.10
2022-08-16T17:43:43.903Z,4.43
2022-08-16T17:49:36.870Z,5.20
2022-08-16T17:52:05.331Z,4.63
2022-08-16T17:54:33.921Z,4.20
2022-08-16T17:57:06.893Z,3.92
2022-08-16T17:59:38.158Z,4.63
2022-08-16T18:02:43.087Z,5.05
2022-08-16T18:05:06.508Z,4.95
2022-08-16T18:07:35.419Z,4.18
2022-08-16T18:10:09.941Z,4.82
2022-08-16T18:12:51.194Z,4.33
2022-08-16T18:15:23.790Z,5.60
2022-08-16T18:17:53.425Z,5.07
2022-08-16T18:20:45.329Z,5.10
2022-08-16T18:23:18.515Z,4.60
2022-08-16T18:25:55.013Z,5.20
2022-08-16T18:28:23.438Z,5.10
2022-08-16T18:30:54.282Z,5.22
2022-08-16T18:33:27.701Z,4.93
2022-08-16T18:35:57.859Z,4.78
2022-08-16T18:38:53.711Z,5.25
2022-08-16T18:41:27.544Z,5.07
2022-08-16T18:44:25.566Z,4.97
2022-08-16T18:46:46.031Z,5.10
2022-08-16T18:49:23.929Z,5.05
2022-08-16T18:51:57.023Z,5.43
2022-08-16T18:54:24.522Z,5.25
2022-08-16T18:56:55.124Z,5.13
2022-08-16T18:59:25.204Z,4.88
2022-08-16T19:05:46.877Z,4.93
2022-08-16T19:11:40.829Z,5.00
2022-08-16T19:14:07.904Z,5.13
2022-08-16T19:16:35.774Z,5.00
2022-08-16T19:19:03.906Z,5.28
2022-08-16T19:21:31.921Z,5.25
2022-08-16T19:24:04.840Z,5.72
2022-08-16T19:26:33.837Z,5.37
2022-08-16T19:29:03.705Z,5.30
2022-08-16T19:31:35.815Z,5.00
2022-08-16T19:36:56.648Z,5.32
2022-08-16T19:39:50.404Z,5.22
2022-08-16T19:45:17.080Z,5.80
2022-08-16T19:47:44.367Z,5.45
2022-08-16T19:50:12.868Z,5.82
2022-08-16T19:52:40.008Z,6.03
2022-08-16T19:55:41.061Z,5.95
2022-08-16T20:01:00.759Z,6.80
2022-08-16T20:03:27.891Z,7.13
2022-08-16T20:05:56.603Z,7.38
2022-08-16T20:08:23.919Z,7.07
2022-08-16T20:10:51.826Z,6.40
2022-08-16T20:13:28.181Z,6.03
2022-08-16T20:16:00.519Z,6.32
2022-08-16T20:18:34.658Z,6.43
2022-08-16T20:21:01.978Z,6.15
2022-08-16T20:24:09.870Z,6.13
2022-08-16T20:26:43.835Z,6.45
2022-08-16T20:29:11.824Z,6.57
2022-08-16T20:31:39.820Z,6.07
2022-08-16T20:34:07.897Z,6.72
2022-08-16T20:36:36.057Z,6.25
2022-08-16T20:39:07.934Z,6.63
2022-08-16T20:41:40.794Z,6.80
2022-08-16T20:44:10.222Z,6.80
2022-08-16T20:46:39.831Z,6.40
2022-08-16T20:49:10.129Z,6.15
2022-08-16T20:51:50.891Z,6.90
2022-08-16T20:54:25.063Z,6.88
2022-08-16T20:56:57.108Z,7.15
2022-08-16T20:59:28.864Z,6.93
2022-08-16T21:01:57.133Z,7.47
2022-08-16T21:04:27.634Z,7.22
2022-08-16T21:07:01.382Z,7.13
2022-08-16T21:09:33.604Z,6.90
2022-08-16T21:12:06.280Z,6.97
2022-08-16T21:14:34.186Z,7.68
2022-08-16T21:17:04.412Z,7.28
2022-08-16T21:19:33.989Z,7.28
2022-08-16T21:22:19.991Z,8.25
2022-08-16T21:24:49.081Z,6.75
2022-08-16T21:27:24.366Z,7.10
2022-08-16T21:29:52.351Z,6.93
2022-08-16T21:32:35.883Z,6.82
2022-08-16T21:35:13.229Z,7.43
2022-08-16T21:37:44.016Z,7.97
2022-08-16T21:40:34.524Z,7.25
2022-08-16T21:43:11.926Z,7.57
2022-08-16T21:45:41.557Z,7.38
2022-08-16T21:48:36.071Z,7.30
2022-08-16T21:51:10.474Z,7.40
2022-08-16T21:53:44.059Z,7.90
2022-08-16T21:56:17.376Z,8.15
2022-08-16T21:58:53.311Z,8.23
2022-08-16T22:01:24.647Z,8.25
2022-08-16T22:09:29.542Z,7.85
2022-08-16T22:11:57.816Z,8.00
2022-08-16T22:14:25.812Z,8.43
2022-08-16T22:19:46.098Z,8.20
2022-08-16T22:25:06.195Z,8.32
2022-08-16T22:30:51.901Z,7.72
2022-08-16T22:33:25.995Z,8.52
2022-08-16T22:35:57.183Z,9.55
2022-08-16T22:38:54.958Z,8.63
2022-08-16T22:41:11.857Z,8.35
2022-08-16T22:43:47.000Z,8.38
2022-08-16T22:46:40.617Z,9.20
2022-08-16T22:49:08.441Z,8.57
2022-08-16T22:51:41.527Z,7.57
2022-08-16T22:54:34.171Z,8.57
2022-08-16T22:57:04.560Z,8.65
2022-08-16T22:59:37.882Z,8.52
2022-08-16T23:02:09.763Z,8.80
2022-08-16T23:07:29.880Z,9.25
2022-08-16T23:10:03.304Z,9.07
2022-08-16T23:12:32.123Z,8.98
2022-08-16T23:15:04.581Z,9.10
2022-08-16T23:17:32.094Z,8.73
2022-08-16T23:20:04.377Z,9.15
2022-08-16T23:23:19.432Z,9.25
2022-08-16T23:31:07.110Z,9.10
2022-08-16T23:34:00.458Z,9.75
2022-08-16T23:36:27.895Z,9.07
2022-08-16T23:38:55.810Z,9.65
2022-08-16T23:44:57.876Z,9.27
2022-08-16T23:47:25.852Z,9.48
2022-08-16T23:50:01.460Z,9.63
2022-08-16T23:52:53.985Z,9.50
2022-08-16T23:55:22.557Z,9.88
